100LL.CA
Aviation Fuel Pricing for Canadians
Please upgrade your browser - Tested with IE9, FireFox, Chrome, Safari

Fuel Airports Other Help
Prices Economy Info List METAR/TAF Kneeboard Help

Reference Airport: FORT SMITH, NT
N 60 01 13  W 111 57 43
Provinces to show:

CYSM FORT SMITH, NT
WEATHER
METARCYSM 230300Z 14007KT 15SM BKN230 M16/M20 A2983 RMK CI7 SLP124
TAFTAF CYSM 222340Z 2300/2312 14008KT P6SM FEW080 BKN280 FM231100 16010KT P6SM BKN060 RMK NXT FCST BY 230600Z
OTHER SITES

FlightAware

FltPlan

Google Maps

SkyVector
FUEL
FBO 100LL
member
100LL
public
JETA MOGAS
Opr (2019-08-06)2.150
Canada Flight Supplement - CYSM
(opens in new tab/window)


Please Send Updates!

Desktop Version ]  [ Mobile Version ]  [ Disclaimer ]